createdAt,value
2018-05-27T00:01:50.995Z,87.10
2018-05-27T00:04:18.703Z,87.10
2018-05-27T00:06:47.413Z,87.20
2018-05-27T00:09:15.058Z,87.20
2018-05-27T00:11:43.498Z,87.00
2018-05-27T00:14:13.641Z,87.10
2018-05-27T00:16:42.061Z,87.10
2018-05-27T00:19:14.092Z,87.10
2018-05-27T00:21:43.467Z,87.20
2018-05-27T00:24:13.776Z,87.30
2018-05-27T00:26:41.467Z,87.20
2018-05-27T00:29:09.107Z,87.40
2018-05-27T00:31:36.806Z,87.40
2018-05-27T00:34:04.504Z,87.50
2018-05-27T00:36:32.146Z,87.50
2018-05-27T00:39:00.617Z,87.80
2018-05-27T00:41:28.301Z,87.70
2018-05-27T00:44:08.254Z,87.90
2018-05-27T00:46:36.737Z,88.40
2018-05-27T00:49:04.405Z,88.00
2018-05-27T00:51:32.882Z,88.10
2018-05-27T00:54:00.609Z,88.10
2018-05-27T00:56:28.242Z,88.20
2018-05-27T00:58:55.955Z,88.30
2018-05-27T01:01:23.658Z,88.50
2018-05-27T01:03:52.100Z,88.40
2018-05-27T01:06:19.793Z,88.40
2018-05-27T01:08:47.441Z,88.30
2018-05-27T01:11:15.845Z,88.20
2018-05-27T01:13:44.294Z,88.20
2018-05-27T01:16:11.986Z,88.00
2018-05-27T01:18:39.647Z,88.80
2018-05-27T01:21:07.346Z,88.00
2018-05-27T01:23:35.049Z,88.10
2018-05-27T01:26:02.698Z,88.10
2018-05-27T01:28:31.174Z,88.20
2018-05-27T01:30:58.829Z,88.10
2018-05-27T01:33:26.498Z,88.10
2018-05-27T01:35:54.178Z,88.20
2018-05-27T01:38:21.851Z,88.30
2018-05-27T01:40:49.502Z,88.50
2018-05-27T01:43:17.170Z,88.60
2018-05-27T01:45:45.629Z,88.60
2018-05-27T01:48:13.284Z,88.90
2018-05-27T01:50:40.970Z,88.80
2018-05-27T01:53:08.639Z,88.80
2018-05-27T01:55:36.286Z,88.90
2018-05-27T01:58:03.989Z,89.00
2018-05-27T02:00:31.656Z,89.00
2018-05-27T02:02:59.314Z,89.00
2018-05-27T02:05:26.996Z,89.30
2018-05-27T02:07:54.692Z,89.30
2018-05-27T02:10:23.116Z,88.80
2018-05-27T02:12:50.803Z,89.20
2018-05-27T02:15:19.220Z,89.40
2018-05-27T02:17:46.866Z,89.40
2018-05-27T02:20:14.541Z,89.40
2018-05-27T02:22:42.207Z,89.40
2018-05-27T02:25:09.873Z,89.40
2018-05-27T02:27:37.512Z,89.50
2018-05-27T02:30:05.210Z,89.60
2018-05-27T02:32:32.857Z,89.70
2018-05-27T02:35:00.520Z,90.00
2018-05-27T02:37:28.186Z,89.80
2018-05-27T02:39:56.604Z,89.80
2018-05-27T02:42:24.270Z,89.80
2018-05-27T02:44:52.882Z,90.00
2018-05-27T02:47:20.551Z,90.00
2018-05-27T02:49:48.199Z,90.00
2018-05-27T02:52:15.879Z,90.00
2018-05-27T02:54:43.537Z,90.00
2018-05-27T02:57:11.962Z,90.00
2018-05-27T02:59:39.695Z,90.00
2018-05-27T03:02:07.354Z,90.00
2018-05-27T03:04:35.018Z,89.90
2018-05-27T03:07:02.724Z,90.00
2018-05-27T03:09:30.382Z,89.90
2018-05-27T03:11:58.812Z,90.00
2018-05-27T03:14:26.511Z,90.00
2018-05-27T03:16:54.150Z,90.00
2018-05-27T03:19:22.614Z,90.30
2018-05-27T03:21:50.266Z,90.00
2018-05-27T03:24:18.678Z,90.00
2018-05-27T03:26:46.391Z,90.00
2018-05-27T03:29:14.078Z,90.00
2018-05-27T03:31:41.744Z,90.00
2018-05-27T03:34:09.382Z,90.00
2018-05-27T03:36:37.076Z,90.00
2018-05-27T03:39:04.763Z,90.00
2018-05-27T03:41:32.442Z,90.10
2018-05-27T03:44:00.153Z,90.10
2018-05-27T03:46:27.791Z,90.30
2018-05-27T03:48:55.473Z,90.40
2018-05-27T03:51:23.178Z,90.70
2018-05-27T03:53:50.824Z,90.40
2018-05-27T03:56:18.543Z,90.40
2018-05-27T03:58:46.191Z,90.40
2018-05-27T04:01:14.593Z,90.30
2018-05-27T04:03:43.073Z,90.30
2018-05-27T04:06:22.621Z,90.30
2018-05-27T04:08:50.305Z,90.20
2018-05-27T04:11:17.965Z,90.20
2018-05-27T04:13:45.599Z,90.20
2018-05-27T04:16:13.282Z,90.20
2018-05-27T04:18:40.981Z,90.30
2018-05-27T04:21:08.629Z,90.30
2018-05-27T04:23:36.323Z,90.40
2018-05-27T04:26:04.018Z,90.40
2018-05-27T04:28:31.745Z,90.50
2018-05-27T04:31:00.249Z,90.60
2018-05-27T04:33:28.711Z,90.60
2018-05-27T04:35:56.365Z,90.60
2018-05-27T04:38:24.042Z,90.60
2018-05-27T04:40:51.701Z,90.60
2018-05-27T04:43:19.349Z,90.60
2018-05-27T04:48:57.842Z,90.70
2018-05-27T04:51:25.505Z,90.70
2018-05-27T04:53:53.190Z,90.70
2018-05-27T04:56:24.869Z,90.70
2018-05-27T04:58:53.887Z,90.80
2018-05-27T05:01:23.053Z,90.80
2018-05-27T05:03:50.901Z,90.90
2018-05-27T05:06:18.606Z,90.90
2018-05-27T05:08:46.293Z,91.00
2018-05-27T05:11:13.910Z,91.10
2018-05-27T05:13:41.613Z,91.20
2018-05-27T05:16:10.081Z,91.20
2018-05-27T05:18:37.929Z,91.30
2018-05-27T05:21:05.605Z,91.30
2018-05-27T05:23:34.050Z,91.30
2018-05-27T05:26:01.717Z,91.30
2018-05-27T05:28:29.411Z,91.30
2018-05-27T05:30:57.114Z,91.30
2018-05-27T05:33:24.770Z,91.20
2018-05-27T05:35:52.457Z,91.20
2018-05-27T05:38:20.889Z,91.20
2018-05-27T05:40:50.605Z,91.10
2018-05-27T05:43:19.257Z,91.00
2018-05-27T05:51:56.841Z,90.40
2018-05-27T05:54:25.307Z,90.00
2018-05-27T05:56:52.994Z,89.90
2018-05-27T05:59:20.634Z,89.30
2018-05-27T06:01:49.967Z,88.30
2018-05-27T06:04:18.425Z,87.90
2018-05-27T06:06:46.066Z,87.90
2018-05-27T06:09:16.543Z,87.30
2018-05-27T06:11:44.266Z,86.40
2018-05-27T06:14:11.925Z,86.20
2018-05-27T06:16:39.593Z,86.00
2018-05-27T06:19:07.438Z,85.70
2018-05-27T06:21:35.902Z,85.10
2018-05-27T06:24:03.574Z,85.00
2018-05-27T06:26:31.220Z,84.70
2018-05-27T06:28:58.894Z,84.30
2018-05-27T06:31:27.438Z,83.70
2018-05-27T06:33:55.868Z,83.00
2018-05-27T06:36:23.513Z,83.00
2018-05-27T06:38:51.160Z,82.40
2018-05-27T06:41:18.830Z,82.10
2018-05-27T06:43:46.450Z,82.30
2018-05-27T06:46:14.118Z,81.20
2018-05-27T06:48:41.791Z,80.60
2018-05-27T06:51:09.457Z,80.60
2018-05-27T06:53:37.918Z,79.50
2018-05-27T06:56:05.624Z,79.40
2018-05-27T06:58:34.046Z,78.60
2018-05-27T07:01:02.502Z,79.20
2018-05-27T07:03:30.200Z,78.50
2018-05-27T07:05:57.883Z,79.30
2018-05-27T07:08:25.569Z,78.20
2018-05-27T07:10:53.247Z,77.90
2018-05-27T07:13:20.873Z,77.80
2018-05-27T07:15:48.565Z,77.60
2018-05-27T07:18:16.225Z,77.30
2018-05-27T07:20:43.886Z,77.00
2018-05-27T07:23:11.538Z,77.00
2018-05-27T07:25:39.968Z,76.30
2018-05-27T07:28:07.653Z,77.00
2018-05-27T07:30:36.098Z,76.90
2018-05-27T07:33:03.903Z,76.90
2018-05-27T07:35:31.570Z,76.70
2018-05-27T07:37:59.234Z,76.30
2018-05-27T07:40:27.669Z,75.90
2018-05-27T07:42:55.317Z,75.90
2018-05-27T07:45:23.790Z,77.60
2018-05-27T07:47:51.694Z,76.90
2018-05-27T07:50:19.340Z,77.10
2018-05-27T07:52:47.017Z,77.20
2018-05-27T07:55:14.700Z,77.30
2018-05-27T07:57:42.316Z,77.40
2018-05-27T08:00:10.031Z,77.40
2018-05-27T08:02:37.687Z,77.60
2018-05-27T08:08:18.692Z,77.40
2018-05-27T08:10:46.467Z,77.20
2018-05-27T08:13:14.151Z,76.90
2018-05-27T08:15:43.334Z,77.20
2018-05-27T08:18:11.363Z,77.20
2018-05-27T08:20:39.050Z,77.00
2018-05-27T08:23:07.576Z,77.80
2018-05-27T08:25:35.243Z,76.60
2018-05-27T08:28:02.947Z,76.30
2018-05-27T08:30:30.648Z,76.00
2018-05-27T08:32:59.112Z,76.00
2018-05-27T08:35:26.800Z,75.30
2018-05-27T08:37:55.221Z,75.20
2018-05-27T08:40:22.923Z,75.20
2018-05-27T08:42:50.626Z,74.40
2018-05-27T08:45:18.245Z,73.30
2018-05-27T08:47:45.933Z,72.50
2018-05-27T08:50:13.619Z,71.90
2018-05-27T08:52:41.258Z,71.60
2018-05-27T08:55:09.699Z,70.80
2018-05-27T08:57:37.349Z,70.70
2018-05-27T09:00:05.791Z,70.30
2018-05-27T09:02:33.520Z,70.20
2018-05-27T09:05:01.190Z,69.90
2018-05-27T09:07:28.854Z,69.00
2018-05-27T09:09:56.517Z,68.90
2018-05-27T09:12:24.197Z,68.50
2018-05-27T09:14:51.859Z,68.40
2018-05-27T09:17:20.356Z,68.10
2018-05-27T09:19:48.042Z,68.00
2018-05-27T09:22:15.686Z,67.90
2018-05-27T09:24:43.392Z,67.90
2018-05-27T09:27:11.064Z,68.90
2018-05-27T09:29:38.716Z,67.90
2018-05-27T09:32:07.188Z,67.10
2018-05-27T09:34:34.835Z,67.10
2018-05-27T09:37:02.760Z,66.80
2018-05-27T09:39:30.442Z,66.50
2018-05-27T09:41:58.134Z,66.00
2018-05-27T09:44:25.832Z,65.70
2018-05-27T09:46:53.553Z,65.50
2018-05-27T09:49:22.001Z,65.20
2018-05-27T09:51:49.654Z,65.20
2018-05-27T09:54:18.085Z,65.70
2018-05-27T09:56:45.798Z,65.60
2018-05-27T09:59:13.440Z,65.50
2018-05-27T10:01:41.127Z,65.30
2018-05-27T10:04:08.795Z,65.20
2018-05-27T10:06:37.174Z,65.20
2018-05-27T10:09:05.676Z,64.80
2018-05-27T10:11:33.372Z,64.70
2018-05-27T10:14:02.099Z,64.60
2018-05-27T10:16:29.858Z,64.20
2018-05-27T10:18:58.462Z,63.40
2018-05-27T10:21:26.880Z,63.40
2018-05-27T10:23:54.570Z,63.00
2018-05-27T10:26:22.228Z,63.00
2018-05-27T10:28:49.869Z,63.00
2018-05-27T10:31:17.566Z,63.00
2018-05-27T10:33:45.264Z,63.00
2018-05-27T10:36:13.679Z,63.90
2018-05-27T10:38:42.108Z,63.80
2018-05-27T10:41:09.811Z,63.70
2018-05-27T10:43:37.455Z,62.80
2018-05-27T10:46:06.010Z,62.30
2018-05-27T10:48:33.666Z,62.20
2018-05-27T10:51:01.313Z,61.70
2018-05-27T10:53:28.978Z,61.20
2018-05-27T10:55:56.656Z,61.40
2018-05-27T10:58:24.298Z,61.50
2018-05-27T11:00:52.719Z,61.50
2018-05-27T11:03:20.490Z,61.40
2018-05-27T11:05:48.251Z,61.50
2018-05-27T11:08:17.782Z,63.10
2018-05-27T11:10:45.449Z,63.00
2018-05-27T11:13:13.103Z,62.90
2018-05-27T11:15:40.753Z,62.60
2018-05-27T11:18:08.458Z,62.20
2018-05-27T11:20:36.857Z,61.20
2018-05-27T11:23:06.057Z,61.10
2018-05-27T11:25:33.720Z,61.00
2018-05-27T11:28:10.233Z,61.50
2018-05-27T11:30:38.632Z,61.90
2018-05-27T11:33:06.343Z,62.30
2018-05-27T11:35:34.084Z,62.20
2018-05-27T11:38:01.768Z,61.90
2018-05-27T11:40:29.443Z,62.30
2018-05-27T11:42:58.578Z,61.20
2018-05-27T11:45:26.477Z,61.20
2018-05-27T11:47:54.143Z,60.80
2018-05-27T11:50:21.818Z,61.00
2018-05-27T11:52:49.498Z,60.90
2018-05-27T11:55:18.223Z,61.00
2018-05-27T11:57:45.911Z,61.10
2018-05-27T12:00:17.524Z,62.50
2018-05-27T12:02:47.095Z,61.60
2018-05-27T12:05:14.778Z,61.60
2018-05-27T12:07:43.199Z,61.60
2018-05-27T12:10:11.668Z,60.80
2018-05-27T12:15:45.541Z,60.70
2018-05-27T12:18:13.193Z,60.50
2018-05-27T12:20:41.669Z,60.00
2018-05-27T12:23:09.914Z,60.20
2018-05-27T12:25:37.626Z,60.20
2018-05-27T12:28:06.006Z,60.20
2018-05-27T12:30:33.699Z,61.00
2018-05-27T12:33:01.523Z,59.60
2018-05-27T12:35:29.213Z,59.10
2018-05-27T12:37:57.648Z,58.10
2018-05-27T12:40:25.582Z,58.10
2018-05-27T12:42:53.347Z,57.90
2018-05-27T12:45:21.016Z,58.10
2018-05-27T12:50:56.975Z,57.40
2018-05-27T12:53:25.403Z,57.30
2018-05-27T12:55:53.361Z,57.30
2018-05-27T12:58:21.012Z,56.90
2018-05-27T13:00:48.685Z,56.50
2018-05-27T13:03:16.326Z,56.70
2018-05-27T13:05:44.007Z,57.00
2018-05-27T13:08:11.699Z,56.20
2018-05-27T13:10:40.106Z,55.00
2018-05-27T13:13:07.775Z,55.00
2018-05-27T13:15:36.214Z,54.00
2018-05-27T13:18:03.897Z,53.90
2018-05-27T13:20:35.822Z,54.10
2018-05-27T13:23:04.127Z,54.00
2018-05-27T13:25:31.794Z,53.40
2018-05-27T13:28:00.024Z,53.30
2018-05-27T13:30:28.059Z,53.40
2018-05-27T13:32:55.701Z,53.30
2018-05-27T13:35:23.362Z,53.50
2018-05-27T13:37:51.803Z,53.50
2018-05-27T13:40:20.595Z,53.40
2018-05-27T13:42:48.254Z,53.00
2018-05-27T13:45:15.931Z,52.90
2018-05-27T13:47:43.582Z,52.50
2018-05-27T13:50:11.251Z,52.50
2018-05-27T13:52:38.926Z,51.80
2018-05-27T13:55:07.325Z,50.30
2018-05-27T13:57:35.786Z,49.30
2018-05-27T14:00:18.777Z,49.30
2018-05-27T14:02:46.437Z,48.40
2018-05-27T14:05:14.162Z,47.40
2018-05-27T14:07:42.603Z,46.40
2018-05-27T14:10:10.339Z,46.40
2018-05-27T14:12:38.003Z,46.30
2018-05-27T14:15:05.927Z,46.30
2018-05-27T14:17:33.601Z,46.50
2018-05-27T14:20:01.255Z,46.60
2018-05-27T14:22:28.913Z,47.10
2018-05-27T14:24:56.571Z,47.30
2018-05-27T14:27:24.251Z,47.00
2018-05-27T14:29:51.904Z,47.20
2018-05-27T14:32:19.579Z,47.20
2018-05-27T14:34:48.945Z,46.80
2018-05-27T14:37:16.610Z,46.80
2018-05-27T14:39:45.575Z,48.40
2018-05-27T14:42:13.262Z,48.40
2018-05-27T14:44:40.908Z,49.20
2018-05-27T14:47:09.344Z,49.60
2018-05-27T14:49:37.050Z,49.50
2018-05-27T14:52:04.739Z,50.00
2018-05-27T14:54:32.390Z,50.70
2018-05-27T14:57:00.121Z,51.40
2018-05-27T14:59:27.754Z,52.10
2018-05-27T15:01:56.201Z,51.80
2018-05-27T15:04:23.910Z,51.70
2018-05-27T15:06:53.324Z,52.10
2018-05-27T15:09:24.797Z,52.10
2018-05-27T15:11:52.827Z,51.30
2018-05-27T15:14:20.478Z,50.80
2018-05-27T15:16:48.175Z,50.70
2018-05-27T15:19:15.863Z,50.40
2018-05-27T15:21:43.497Z,50.30
2018-05-27T15:24:12.145Z,50.10
2018-05-27T15:26:40.658Z,49.70
2018-05-27T15:29:08.358Z,49.70
2018-05-27T15:31:36.034Z,49.70
2018-05-27T15:34:03.708Z,49.70
2018-05-27T15:36:31.369Z,50.30
2018-05-27T15:39:00.610Z,51.40
2018-05-27T15:41:28.345Z,52.00
2018-05-27T15:43:58.471Z,52.00
2018-05-27T15:46:26.263Z,52.40
2018-05-27T15:48:53.970Z,52.00
2018-05-27T15:51:21.617Z,52.80
2018-05-27T15:53:50.315Z,53.10
2018-05-27T15:56:18.772Z,53.80
2018-05-27T15:58:46.408Z,53.70
2018-05-27T16:01:14.846Z,53.90
2018-05-27T16:03:42.702Z,53.90
2018-05-27T16:06:11.123Z,53.70
2018-05-27T16:08:40.437Z,53.60
2018-05-27T16:11:08.313Z,53.60
2018-05-27T16:13:36.040Z,53.80
2018-05-27T16:16:04.255Z,54.10
2018-05-27T16:18:32.762Z,54.40
2018-05-27T16:21:01.172Z,54.50
2018-05-27T16:23:28.849Z,54.50
2018-05-27T16:25:57.296Z,54.40
2018-05-27T16:28:24.944Z,54.40
2018-05-27T16:30:53.357Z,55.20
2018-05-27T16:33:21.777Z,55.10
2018-05-27T16:35:49.401Z,55.10
2018-05-27T16:38:17.193Z,55.10
2018-05-27T16:40:44.876Z,55.40
2018-05-27T16:43:12.542Z,55.70
2018-05-27T16:45:40.985Z,57.00
2018-05-27T16:48:08.669Z,57.00
2018-05-27T16:50:36.315Z,57.10
2018-05-27T16:53:04.945Z,57.30
2018-05-27T16:55:32.639Z,57.20
2018-05-27T16:58:00.568Z,57.50
2018-05-27T17:00:28.238Z,58.10
2018-05-27T17:02:55.925Z,58.50
2018-05-27T17:05:23.579Z,58.80
2018-05-27T17:07:51.244Z,59.20
2018-05-27T17:10:18.963Z,59.30
2018-05-27T17:12:46.594Z,59.50
2018-05-27T17:15:35.398Z,60.00
2018-05-27T17:18:06.046Z,60.00
2018-05-27T17:20:33.765Z,60.00
2018-05-27T17:23:01.447Z,60.20
2018-05-27T17:25:29.093Z,60.70
2018-05-27T17:27:56.827Z,61.20
2018-05-27T17:30:24.473Z,61.90
2018-05-27T17:32:52.130Z,62.40
2018-05-27T17:35:20.208Z,62.90
2018-05-27T17:37:47.902Z,63.60
2018-05-27T17:40:18.793Z,64.30
2018-05-27T17:42:46.763Z,64.80
2018-05-27T17:45:18.406Z,65.30
2018-05-27T17:47:47.653Z,66.30
2018-05-27T17:50:15.564Z,67.10
2018-05-27T17:52:43.212Z,67.50
2018-05-27T17:55:14.961Z,68.00
2018-05-27T17:57:42.646Z,68.10
2018-05-27T18:00:10.306Z,68.30
2018-05-27T18:02:38.046Z,68.70
2018-05-27T18:05:09.042Z,68.00
2018-05-27T18:07:36.953Z,68.00
2018-05-27T18:10:04.671Z,67.70
2018-05-27T18:12:32.398Z,67.20
2018-05-27T18:15:06.597Z,67.10
2018-05-27T18:17:34.762Z,67.10
2018-05-27T18:20:02.426Z,67.10
2018-05-27T18:22:30.119Z,67.40
2018-05-27T18:24:57.837Z,67.70
2018-05-27T18:27:25.464Z,67.90
2018-05-27T18:29:53.150Z,68.60
2018-05-27T18:32:21.567Z,69.40
2018-05-27T18:34:49.450Z,69.50
2018-05-27T18:37:17.143Z,70.20
2018-05-27T18:39:45.014Z,69.60
2018-05-27T18:42:12.659Z,69.80
2018-05-27T18:44:41.396Z,69.70
2018-05-27T18:47:09.596Z,69.70
2018-05-27T18:49:42.342Z,69.60
2018-05-27T18:52:16.432Z,69.60
2018-05-27T18:54:44.161Z,69.60
2018-05-27T18:57:11.886Z,70.40
2018-05-27T18:59:42.085Z,70.50
2018-05-27T19:02:10.645Z,70.90
2018-05-27T19:04:38.350Z,70.70
2018-05-27T19:07:06.087Z,71.70
2018-05-27T19:09:33.790Z,71.20
2018-05-27T19:12:01.470Z,71.10
2018-05-27T19:14:29.930Z,71.10
2018-05-27T19:17:03.329Z,71.20
2018-05-27T19:19:30.979Z,71.20
2018-05-27T19:22:15.262Z,71.30
2018-05-27T19:24:42.956Z,71.60
2018-05-27T19:27:10.594Z,71.80
2018-05-27T19:29:39.802Z,72.10
2018-05-27T19:32:19.138Z,72.10
2018-05-27T19:34:46.821Z,71.90
2018-05-27T19:37:14.505Z,72.10
2018-05-27T19:39:42.397Z,72.30
2018-05-27T19:42:10.083Z,72.30
2018-05-27T19:44:37.762Z,72.50
2018-05-27T19:47:22.726Z,72.70
2018-05-27T19:49:50.395Z,72.90
2018-05-27T19:52:18.025Z,73.20
2018-05-27T19:54:46.514Z,73.60
2018-05-27T19:57:14.187Z,73.60
2018-05-27T19:59:41.922Z,74.00
2018-05-27T20:02:09.639Z,74.50
2018-05-27T20:04:37.382Z,74.60
2018-05-27T20:07:05.079Z,75.20
2018-05-27T20:09:33.537Z,74.30
2018-05-27T20:12:01.251Z,74.20
2018-05-27T20:14:28.915Z,74.50
2018-05-27T20:16:56.645Z,74.60
2018-05-27T20:19:30.348Z,75.00
2018-05-27T20:21:58.171Z,76.10
2018-05-27T20:24:25.907Z,75.30
2018-05-27T20:26:53.550Z,75.40
2018-05-27T20:29:22.036Z,76.70
2018-05-27T20:31:49.687Z,75.90
2018-05-27T20:34:18.884Z,75.70
2018-05-27T20:36:47.997Z,75.70
2018-05-27T20:39:16.513Z,76.00
2018-05-27T20:41:45.236Z,76.00
2018-05-27T20:44:12.942Z,76.10
2018-05-27T20:46:40.641Z,76.40
2018-05-27T20:49:08.307Z,76.60
2018-05-27T20:51:35.960Z,76.60
2018-05-27T20:54:12.027Z,76.60
2018-05-27T20:56:39.778Z,76.50
2018-05-27T20:59:09.133Z,76.60
2018-05-27T21:01:36.821Z,76.40
2018-05-27T21:04:06.494Z,76.60
2018-05-27T21:06:34.165Z,77.40
2018-05-27T21:09:01.826Z,76.90
2018-05-27T21:11:29.476Z,77.10
2018-05-27T21:13:57.313Z,77.40
2018-05-27T21:16:39.734Z,77.50
2018-05-27T21:19:07.724Z,77.50
2018-05-27T21:21:35.455Z,77.80
2018-05-27T21:24:03.168Z,78.10
2018-05-27T21:26:32.694Z,78.50
2018-05-27T21:29:00.515Z,78.50
2018-05-27T21:31:29.112Z,78.70
2018-05-27T21:33:57.965Z,79.00
2018-05-27T21:36:25.599Z,79.00
2018-05-27T21:38:53.586Z,79.10
2018-05-27T21:41:21.306Z,79.10
2018-05-27T21:43:49.717Z,79.10
2018-05-27T21:46:18.179Z,79.00
2018-05-27T21:48:45.923Z,79.00
2018-05-27T21:51:13.714Z,79.20
2018-05-27T21:53:41.691Z,79.40
2018-05-27T21:56:09.370Z,79.60
2018-05-27T21:58:37.073Z,79.50
2018-05-27T22:01:04.923Z,79.60
2018-05-27T22:03:32.850Z,79.60
2018-05-27T22:06:01.298Z,80.10
2018-05-27T22:08:28.978Z,80.00
2018-05-27T22:10:56.667Z,80.20
2018-05-27T22:13:24.317Z,80.40
2018-05-27T22:15:52.014Z,80.60
2018-05-27T22:18:20.459Z,80.80
2018-05-27T22:20:48.130Z,80.80
2018-05-27T22:23:15.854Z,80.90
2018-05-27T22:25:43.800Z,80.90
2018-05-27T22:28:12.269Z,81.40
2018-05-27T22:30:39.966Z,81.40
2018-05-27T22:33:11.729Z,81.40
2018-05-27T22:35:40.196Z,81.20
2018-05-27T22:38:07.886Z,81.90
2018-05-27T22:40:35.551Z,81.80
2018-05-27T22:43:03.990Z,81.90
2018-05-27T22:45:31.689Z,81.80
2018-05-27T22:47:59.337Z,82.00
2018-05-27T22:50:27.790Z,82.20
2018-05-27T22:52:55.432Z,82.20
2018-05-27T22:55:23.854Z,82.50
2018-05-27T22:57:51.620Z,82.50
2018-05-27T23:00:20.074Z,82.40
2018-05-27T23:02:47.693Z,82.40
2018-05-27T23:05:16.386Z,82.40
2018-05-27T23:07:44.062Z,82.50
2018-05-27T23:10:11.721Z,82.50
2018-05-27T23:12:39.433Z,82.50
2018-05-27T23:15:10.228Z,82.50
2018-05-27T23:17:37.890Z,82.80
2018-05-27T23:20:05.544Z,83.00
2018-05-27T23:22:33.275Z,83.10
2018-05-27T23:25:00.921Z,83.30
2018-05-27T23:27:28.622Z,83.10
2018-05-27T23:29:56.274Z,83.10
2018-05-27T23:32:24.678Z,83.10
2018-05-27T23:34:53.125Z,83.20
2018-05-27T23:37:20.775Z,83.10
2018-05-27T23:39:49.182Z,83.20
2018-05-27T23:42:17.155Z,83.20
2018-05-27T23:44:45.622Z,83.40
2018-05-27T23:47:13.242Z,83.40
2018-05-27T23:49:40.938Z,83.60
2018-05-27T23:52:09.395Z,84.00
2018-05-27T23:54:37.046Z,84.00
2018-05-27T23:57:04.729Z,84.20
2018-05-27T23:59:32.419Z,84.20
